Time;durP1;ratioP1;P1;durP2;ratioP2;P2;SDS_P1;SDS_P2;PMS_P1;PMS_P2;Temp;Humidity;BMP_temperature;BMP_pressure;BME280_temperature;BME280_humidity;BME280_pressure;Samples;Min_cycle;Max_cycle;Signal;HPM_P1;HPM_P2
2023/02/24 00:02:02;;;;;;;14.30;9.50;;;;;;;-3.01;100.00;99870.05;110426;1276;23579;-67
2023/02/24 00:04:32;;;;;;;17.60;10.10;;;;;;;-3.02;100.00;99866.57;110237;1271;22188;-67
2023/02/24 00:07:01;;;;;;;18.30;10.60;;;;;;;-2.96;100.00;99861.13;110384;1276;22325;-67
2023/02/24 00:09:32;;;;;;;14.10;9.40;;;;;;;-2.92;100.00;99854.63;110384;1276;22430;-67
2023/02/24 00:12:03;;;;;;;16.50;9.70;;;;;;;-2.93;100.00;99849.42;110362;1276;22451;-67
2023/02/24 00:14:36;;;;;;;16.80;10.10;;;;;;;-2.96;100.00;99844.61;110398;1276;22678;-67
2023/02/24 00:17:06;;;;;;;15.00;9.30;;;;;;;-2.98;100.00;99846.42;110376;1276;23001;-67
2023/02/24 00:19:35;;;;;;;15.50;9.80;;;;;;;-2.96;100.00;99839.73;110421;1276;22409;-67
2023/02/24 00:22:07;;;;;;;17.20;10.00;;;;;;;-2.89;100.00;99840.00;110391;1276;23105;-67
2023/02/24 00:24:36;;;;;;;16.20;10.30;;;;;;;-2.85;100.00;99834.97;110279;1276;22312;-67
2023/02/24 00:27:11;;;;;;;16.40;9.90;;;;;;;-2.87;100.00;99829.61;110349;1276;22226;-67
2023/02/24 00:29:43;;;;;;;15.40;9.80;;;;;;;-2.89;100.00;99824.22;110389;1276;22205;-67
2023/02/24 00:32:13;;;;;;;15.70;9.90;;;;;;;-2.90;100.00;99813.34;110387;1276;22511;-67
2023/02/24 00:34:43;;;;;;;16.10;10.20;;;;;;;-2.85;100.00;99815.18;110388;1276;22248;-67
2023/02/24 00:37:14;;;;;;;15.10;9.50;;;;;;;-2.80;100.00;99808.32;110345;1276;22426;-67
2023/02/24 00:39:44;;;;;;;14.60;9.90;;;;;;;-2.81;100.00;99803.55;110417;1270;22322;-67
2023/02/24 00:42:14;;;;;;;15.30;10.30;;;;;;;-2.84;100.00;99796.34;107732;1276;23877;-67
2023/02/24 00:44:43;;;;;;;15.80;10.00;;;;;;;-2.87;100.00;99789.91;107703;1276;22625;-67
2023/02/24 00:47:12;;;;;;;16.60;10.50;;;;;;;-2.87;100.00;99788.13;107683;1276;24205;-66
2023/02/24 00:49:42;;;;;;;15.40;9.90;;;;;;;-2.81;100.00;99775.34;107705;1273;22575;-66
2023/02/24 00:52:12;;;;;;;15.90;10.10;;;;;;;-2.79;100.00;99769.48;107698;1276;22679;-66
2023/02/24 00:54:42;;;;;;;17.20;10.70;;;;;;;-2.82;100.00;99754.06;107600;1273;26253;-67
2023/02/24 00:57:10;;;;;;;17.60;10.10;;;;;;;-2.85;100.00;99747.55;110437;1276;22273;-67
2023/02/24 00:59:41;;;;;;;18.60;10.40;;;;;;;-2.85;100.00;99739.84;110405;1276;22289;-67
2023/02/24 01:02:10;;;;;;;15.00;9.60;;;;;;;-2.77;100.00;99734.99;110371;1276;22269;-67
2023/02/24 01:04:38;;;;;;;15.20;9.80;;;;;;;-2.73;100.00;99730.04;110286;1276;22214;-67
2023/02/24 01:07:09;;;;;;;14.90;10.30;;;;;;;-2.75;100.00;99731.52;110381;1276;22827;-67
2023/02/24 01:09:39;;;;;;;16.30;10.80;;;;;;;-2.78;100.00;99726.91;110382;1275;23161;-67
2023/02/24 01:14:56;;;;;;;15.60;10.10;;;;;;;-2.71;100.00;99721.32;110372;1276;22962;-67
2023/02/24 01:17:27;;;;;;;16.50;10.20;;;;;;;-2.69;100.00;99709.66;110218;1276;23271;-67
2023/02/24 01:19:59;;;;;;;15.90;10.20;;;;;;;-2.70;100.00;99698.10;110294;1269;22223;-66
2023/02/24 01:22:28;;;;;;;15.60;9.90;;;;;;;-2.72;100.00;99693.00;110297;1276;22203;-67
2023/02/24 01:24:56;;;;;;;15.90;10.10;;;;;;;-2.66;100.00;99684.94;110370;1276;22350;-67
2023/02/24 01:27:24;;;;;;;15.80;10.40;;;;;;;-2.60;100.00;99687.23;109456;1276;22599;-67
2023/02/24 01:29:54;;;;;;;15.60;10.00;;;;;;;-2.58;100.00;99688.23;107616;1273;23468;-67
2023/02/24 01:32:24;;;;;;;15.20;9.90;;;;;;;-2.60;100.00;99683.20;107681;1275;22546;-66
2023/02/24 01:34:53;;;;;;;16.70;10.60;;;;;;;-2.60;100.00;99676.06;107847;1276;25431;-66
2023/02/24 01:37:21;;;;;;;16.20;10.20;;;;;;;-2.55;100.00;99675.59;107300;1275;22615;-67
2023/02/24 01:39:49;;;;;;;16.80;10.70;;;;;;;-2.55;100.00;99670.67;107424;1276;23771;-66
2023/02/24 01:42:19;;;;;;;16.50;10.90;;;;;;;-2.59;100.00;99667.35;107628;1276;24381;-66
2023/02/24 01:44:47;;;;;;;15.40;10.60;;;;;;;-2.60;100.00;99668.77;107771;1273;22988;-67
2023/02/24 01:47:17;;;;;;;19.40;10.80;;;;;;;-2.54;100.00;99667.20;107755;1276;23375;-67
2023/02/24 01:49:50;;;;;;;18.20;10.90;;;;;;;-2.49;100.00;99662.61;107667;1272;24846;-67
2023/02/24 01:52:19;;;;;;;18.00;10.80;;;;;;;-2.50;100.00;99656.38;107848;1276;23784;-67
2023/02/24 01:54:55;;;;;;;17.50;10.60;;;;;;;-2.53;100.00;99658.23;107521;1271;23271;-67
2023/02/24 01:57:26;;;;;;;;;;;;;;;-2.49;100.00;99654.65;110405;1276;22435;-67
2023/02/24 01:59:54;;;;;;;15.70;10.10;;;;;;;-2.44;100.00;99652.77;110269;1270;22242;-67
2023/02/24 02:02:22;;;;;;;18.00;11.30;;;;;;;-2.44;100.00;99647.13;110222;1273;22438;-68
2023/02/24 02:04:58;;;;;;;16.30;11.30;;;;;;;-2.45;100.00;99643.84;110367;1270;22225;-67
2023/02/24 02:07:30;;;;;;;17.80;11.00;;;;;;;-2.46;100.00;99640.08;110095;1273;22284;-68
2023/02/24 02:10:05;;;;;;;18.00;11.10;;;;;;;-2.42;100.00;99638.16;110271;1276;22603;-67
2023/02/24 02:12:42;;;;;;;16.00;10.00;;;;;;;-2.34;100.00;99633.77;110403;1276;22160;-67
2023/02/24 02:15:12;;;;;;;16.20;10.40;;;;;;;-2.31;100.00;99628.22;110359;1276;23126;-67
2023/02/24 02:18:06;;;;;;;18.20;11.00;;;;;;;-2.35;100.00;99620.47;110190;1276;22200;-68
2023/02/24 02:21:17;;;;;;;19.80;10.60;;;;;;;-2.36;100.00;99612.75;110265;1276;22224;-68
2023/02/24 02:23:48;;;;;;;15.60;9.90;;;;;;;-2.31;100.00;99605.73;110390;1275;23132;-67
2023/02/24 02:27:02;;;;;;;19.90;11.10;;;;;;;-2.27;100.00;99600.27;110382;1272;22268;-67
2023/02/24 02:29:48;;;;;;;18.40;11.40;;;;;;;-2.29;100.00;99591.02;110374;1276;23273;-67
2023/02/24 02:32:23;;;;;;;17.60;11.40;;;;;;;-2.34;100.00;99580.94;110430;1276;22224;-68
2023/02/24 02:34:58;;;;;;;15.80;10.20;;;;;;;-2.30;100.00;99579.94;110381;1276;22198;-67
2023/02/24 02:37:31;;;;;;;17.10;10.90;;;;;;;-2.25;100.00;99577.89;110389;1273;22305;-67
2023/02/24 02:40:23;;;;;;;17.30;11.10;;;;;;;-2.28;100.00;99575.73;110215;1274;22234;-67
2023/02/24 02:43:30;;;;;;;18.10;11.80;;;;;;;-2.31;100.00;99572.39;110357;1275;22321;-68
2023/02/24 02:46:02;;;;;;;18.10;11.10;;;;;;;-2.28;100.00;99571.09;110342;1276;22431;-68
2023/02/24 02:48:48;;;;;;;15.00;10.40;;;;;;;-2.24;100.00;99573.55;110261;1276;22248;-68
2023/02/24 02:51:23;;;;;;;18.20;11.30;;;;;;;-2.22;100.00;99567.28;110295;1276;23307;-68
2023/02/24 02:54:44;;;;;;;16.00;11.00;;;;;;;-2.26;100.00;99560.86;110243;1276;23141;-68
2023/02/24 02:57:27;;;;;;;19.60;11.30;;;;;;;-2.26;100.00;99559.50;110153;1275;22551;-67
2023/02/24 03:00:12;;;;;;;18.60;11.50;;;;;;;-2.20;100.00;99552.70;110256;1270;22336;-67
2023/02/24 03:02:43;;;;;;;18.20;11.00;;;;;;;-2.18;100.00;99551.52;110139;1276;23031;-67
2023/02/24 03:05:16;;;;;;;18.70;12.10;;;;;;;-2.21;100.00;99549.08;109806;1276;361295;-67
2023/02/24 03:08:58;;;;;;;19.50;12.60;;;;;;;-2.21;100.00;99540.30;104365;1304;544815;-66
2023/02/24 03:11:27;;;;;;;16.10;10.90;;;;;;;-2.18;100.00;99543.73;109433;1288;22230;-66
2023/02/24 03:13:55;;;;;;;17.60;11.40;;;;;;;-2.14;100.00;99538.63;107068;1289;22539;-66
2023/02/24 03:16:25;;;;;;;17.40;11.80;;;;;;;-2.17;100.00;99531.06;106908;1286;22558;-66
2023/02/24 03:18:58;;;;;;;18.30;11.70;;;;;;;-2.20;100.00;99525.63;106642;1283;25083;-66
2023/02/24 03:21:38;;;;;;;18.50;11.60;;;;;;;-2.23;100.00;99527.11;106591;1285;119864;-66
2023/02/24 03:24:06;;;;;;;19.00;10.60;;;;;;;-2.19;100.00;99521.08;107493;1274;22595;-65
2023/02/24 03:27:21;;;;;;;17.90;11.50;;;;;;;-2.15;100.00;99524.06;107624;1269;22556;-66
2023/02/24 03:29:52;;;;;;;18.00;11.50;;;;;;;-2.17;100.00;99516.53;107126;1276;25488;-66
2023/02/24 03:32:32;;;;;;;19.10;12.50;;;;;;;-2.20;100.00;99515.86;107115;1277;22620;-66
2023/02/24 03:35:15;;;;;;;19.40;12.10;;;;;;;-2.14;100.00;99510.77;107456;1270;22520;-66
2023/02/24 03:37:45;;;;;;;18.60;11.10;;;;;;;-2.04;100.00;99508.21;107562;1275;23428;-66
2023/02/24 03:40:17;;;;;;;19.00;12.10;;;;;;;-2.01;100.00;99505.02;107435;1275;22564;-66
2023/02/24 03:42:47;;;;;;;20.30;13.00;;;;;;;-2.00;100.00;99497.84;110175;1273;22224;-66
2023/02/24 03:45:16;;;;;;;20.70;12.40;;;;;;;-1.98;100.00;99494.89;110301;1272;23106;-66
2023/02/24 03:47:45;;;;;;;19.00;11.50;;;;;;;-1.88;100.00;99497.90;110301;1275;22318;-66
2023/02/24 03:50:16;;;;;;;17.30;10.80;;;;;;;-1.80;100.00;99489.29;110284;1274;22236;-67
2023/02/24 03:53:08;;;;;;;20.20;11.70;;;;;;;-1.79;100.00;99483.84;110351;1275;22258;-67
2023/02/24 03:55:59;;;;;;;19.40;12.30;;;;;;;-1.77;100.00;99484.53;110305;1273;22221;-67
2023/02/24 03:58:45;;;;;;;18.40;11.90;;;;;;;-1.77;100.00;99479.66;109829;1275;22534;-66
2023/02/24 04:01:41;;;;;;;18.00;11.00;;;;;;;-1.69;100.00;99473.60;107476;1275;25561;-66
2023/02/24 04:04:15;;;;;;;15.20;10.20;;;;;;;-1.61;100.00;99472.57;107439;1274;24216;-66
2023/02/24 04:06:53;;;;;;;18.70;11.90;;;;;;;-1.62;100.00;99466.36;107609;1272;23103;-66
2023/02/24 04:09:32;;;;;;;16.40;11.10;;;;;;;-1.65;100.00;99462.98;107852;1275;25370;-67
2023/02/24 04:12:31;;;;;;;16.70;11.30;;;;;;;-1.64;100.00;99461.10;107698;1273;22523;-66
2023/02/24 04:15:20;;;;;;;17.30;11.30;;;;;;;-1.57;100.00;99456.00;107506;1274;25401;-66
2023/02/24 04:17:53;;;;;;;16.20;10.70;;;;;;;-1.54;100.00;99459.87;107577;1275;25421;-66
2023/02/24 04:20:26;;;;;;;19.50;12.20;;;;;;;-1.56;100.00;99455.17;107462;1275;22850;-66
2023/02/24 04:23:00;;;;;;;16.90;10.70;;;;;;;-1.57;100.00;99449.84;107610;1275;22644;-66
2023/02/24 04:25:29;;;;;;;17.20;10.70;;;;;;;-1.52;100.00;99441.55;107608;1275;22567;-66
2023/02/24 04:27:58;;;;;;;14.60;10.30;;;;;;;-1.44;100.00;99440.79;107281;1275;25415;-67
2023/02/24 04:30:32;;;;;;;17.20;9.90;;;;;;;-1.37;100.00;99436.00;107429;1272;24294;-66
2023/02/24 04:33:01;;;;;;;16.20;11.20;;;;;;;-1.38;100.00;99431.52;107616;1275;25331;-66
2023/02/24 04:35:31;;;;;;;22.10;11.30;;;;;;;-1.39;100.00;99430.45;107643;1275;26147;-67
2023/02/24 04:38:01;;;;;;;16.60;10.70;;;;;;;-1.39;100.00;99425.61;107558;1270;22600;-66
2023/02/24 04:40:31;;;;;;;16.40;10.50;;;;;;;-1.33;100.00;99417.69;110263;1276;23066;-67
2023/02/24 04:43:00;;;;;;;15.70;10.00;;;;;;;-1.25;100.00;99412.67;110426;1275;22238;-67
2023/02/24 04:45:31;;;;;;;16.20;10.10;;;;;;;-1.23;100.00;99410.14;110423;1275;23006;-67
2023/02/24 04:48:00;;;;;;;16.40;10.40;;;;;;;-1.23;100.00;99408.77;110368;1269;23211;-67
2023/02/24 04:50:34;;;;;;;16.90;10.40;;;;;;;-1.22;100.00;99406.40;110293;1272;22231;-67
2023/02/24 04:53:08;;;;;;;16.60;10.40;;;;;;;-1.16;100.00;99405.39;110438;1276;22274;-67
2023/02/24 04:55:41;;;;;;;15.20;10.10;;;;;;;-1.11;100.00;99400.38;110397;1270;22222;-67
2023/02/24 04:58:18;;;;;;;17.20;10.40;;;;;;;-1.11;100.00;99401.32;110440;1275;22270;-67
2023/02/24 05:00:51;;;;;;;15.10;10.00;;;;;;;-1.12;100.00;99400.83;110368;1275;23048;-67
2023/02/24 05:03:28;;;;;;;14.60;10.10;;;;;;;-1.06;100.00;99402.30;110465;1274;22185;-67
2023/02/24 05:05:58;;;;;;;16.90;9.90;;;;;;;-0.98;100.00;99397.83;110400;1272;22223;-67
2023/02/24 05:08:29;;;;;;;14.50;9.50;;;;;;;-0.99;100.00;99391.45;110403;1274;22366;-67
2023/02/24 05:10:59;;;;;;;16.30;10.30;;;;;;;-1.01;100.00;99388.66;110425;1270;22855;-67
2023/02/24 05:13:30;;;;;;;14.30;9.70;;;;;;;-0.98;100.00;99385.38;110452;1274;22404;-67
2023/02/24 05:16:05;;;;;;;16.20;10.50;;;;;;;-0.91;100.00;99378.50;110431;1274;23082;-67
2023/02/24 05:18:35;;;;;;;15.50;9.80;;;;;;;-0.90;100.00;99379.20;110349;1269;22300;-67
2023/02/24 05:23:58;;;;;;;14.40;10.00;;;;;;;-0.93;100.00;99384.42;110435;1274;22225;-67
2023/02/24 05:26:43;;;;;;;17.50;10.90;;;;;;;-0.87;100.00;99379.69;110374;1275;22418;-67
2023/02/24 05:29:13;;;;;;;16.60;10.10;;;;;;;-0.81;100.00;99381.50;110394;1275;22196;-68
2023/02/24 05:31:42;;;;;;;16.60;10.60;;;;;;;-0.83;100.00;99376.48;110383;1268;22424;-67
2023/02/24 05:34:15;;;;;;;17.30;10.80;;;;;;;-0.84;100.00;99374.35;110395;1273;23602;-65
2023/02/24 05:36:45;;;;;;;16.50;10.30;;;;;;;-0.80;100.00;99370.39;110401;1275;22477;-66
2023/02/24 05:39:18;;;;;;;17.90;11.20;;;;;;;-0.76;100.00;99370.84;110181;1273;22290;-67
2023/02/24 05:41:47;;;;;;;20.70;11.20;;;;;;;-0.76;100.00;99364.18;110408;1275;22491;-67
2023/02/24 05:44:21;;;;;;;18.40;11.70;;;;;;;-0.78;100.00;99357.90;110411;1269;22322;-66
2023/02/24 05:46:55;;;;;;;19.10;10.30;;;;;;;-0.75;100.00;99361.05;110390;1275;23033;-67
2023/02/24 05:49:27;;;;;;;15.70;10.60;;;;;;;-0.68;100.00;99355.57;110420;1275;22426;-67
2023/02/24 05:51:56;;;;;;;16.30;10.70;;;;;;;-0.69;100.00;99353.89;110484;1274;22290;-67
2023/02/24 05:54:30;;;;;;;16.20;10.80;;;;;;;-0.70;100.00;99353.27;110392;1276;22946;-67
2023/02/24 05:56:59;;;;;;;16.50;11.00;;;;;;;-0.69;100.00;99347.46;110397;1274;22442;-67
2023/02/24 05:59:34;;;;;;;16.70;10.00;;;;;;;-0.64;100.00;99346.89;110413;1273;22436;-67
2023/02/24 06:02:07;;;;;;;16.60;9.90;;;;;;;-0.58;100.00;99340.77;109516;1269;24260;-67
2023/02/24 06:04:49;;;;;;;16.50;10.30;;;;;;;-0.60;100.00;99336.21;107979;1273;24294;-66
2023/02/24 06:07:21;;;;;;;18.80;11.70;;;;;;;-0.62;100.00;99334.42;107628;1270;22600;-66
2023/02/24 06:09:57;;;;;;;17.80;10.60;;;;;;;-0.60;100.00;99335.52;107585;1276;25106;-66
2023/02/24 06:12:38;;;;;;;17.00;10.70;;;;;;;-0.56;100.00;99332.64;107566;1276;24222;-66
2023/02/24 06:15:09;;;;;;;16.80;10.10;;;;;;;-0.58;100.00;99330.10;107670;1276;25366;-67
2023/02/24 06:17:38;;;;;;;16.70;9.80;;;;;;;-0.61;100.00;99329.56;107437;1270;22671;-67
2023/02/24 06:20:14;;;;;;;17.10;9.90;;;;;;;-0.60;100.00;99329.98;107594;1275;25347;-66
2023/02/24 06:22:42;;;;;;;17.30;10.50;;;;;;;-0.55;100.00;99329.46;107539;1276;25375;-66
2023/02/24 06:25:17;;;;;;;14.80;9.90;;;;;;;-0.51;100.00;99321.60;107572;1273;25501;-66
2023/02/24 06:27:52;;;;;;;17.00;10.80;;;;;;;-0.56;100.00;99320.25;107789;1275;23267;-66
2023/02/24 06:30:22;;;;;;;16.40;10.50;;;;;;;-0.58;100.00;99323.14;107661;1276;24216;-66
2023/02/24 06:32:50;;;;;;;16.20;10.00;;;;;;;-0.53;100.00;99320.12;107419;1276;22750;-66
2023/02/24 06:35:19;;;;;;;17.10;10.00;;;;;;;-0.48;100.00;99317.80;107535;1275;22563;-66
2023/02/24 06:37:49;;;;;;;18.60;11.50;;;;;;;-0.51;100.00;99313.54;107523;1275;25366;-66
2023/02/24 06:40:18;;;;;;;18.00;10.80;;;;;;;-0.50;100.00;99310.11;107511;1275;26535;-67
2023/02/24 06:42:48;;;;;;;17.80;10.20;;;;;;;-0.44;100.00;99308.85;107574;1274;25350;-66
2023/02/24 06:45:17;;;;;;;15.20;9.90;;;;;;;-0.40;100.00;99304.73;107395;1276;22527;-67
2023/02/24 06:47:48;;;;;;;17.10;10.40;;;;;;;-0.41;100.00;99303.09;110331;1272;23109;-67
2023/02/24 06:50:19;;;;;;;17.20;10.90;;;;;;;-0.39;100.00;99291.48;110425;1275;22193;-68
2023/02/24 06:52:47;;;;;;;17.40;11.10;;;;;;;-0.32;100.00;99286.22;110390;1276;22329;-67
2023/02/24 06:55:25;;;;;;;17.40;10.70;;;;;;;-0.25;100.00;99279.36;110417;1276;23170;-67
2023/02/24 06:58:02;;;;;;;20.30;11.30;;;;;;;-0.21;100.00;99273.05;110450;1276;22316;-67
2023/02/24 07:00:38;;;;;;;16.50;10.60;;;;;;;-0.18;100.00;99266.77;110313;1276;22213;-68
2023/02/24 07:03:14;;;;;;;17.20;10.60;;;;;;;-0.14;100.00;99267.62;110000;1275;23343;-65
2023/02/24 07:05:49;;;;;;;17.90;11.30;;;;;;;-0.08;100.00;99267.45;107530;1270;25533;-66
2023/02/24 07:08:21;;;;;;;16.70;10.70;;;;;;;-0.05;100.00;99266.17;107765;1270;24388;-66
2023/02/24 07:10:54;;;;;;;18.80;10.90;;;;;;;-0.07;100.00;99262.63;107423;1276;23270;-66
2023/02/24 07:13:24;;;;;;;20.00;10.40;;;;;;;-0.04;100.00;99261.98;106727;1273;23515;-67
2023/02/24 07:16:05;;;;;;;17.70;10.30;;;;;;;0.03;100.00;99253.11;106839;1274;25264;-66
2023/02/24 07:18:36;;;;;;;17.80;10.50;;;;;;;0.03;100.00;99252.87;107216;1275;22523;-66
2023/02/24 07:21:05;;;;;;;19.80;10.40;;;;;;;0.01;100.00;99255.14;106777;1275;25420;-66
2023/02/24 07:23:33;;;;;;;16.00;9.90;;;;;;;0.05;100.00;99240.84;107577;1276;25380;-65
2023/02/24 07:26:08;;;;;;;19.70;10.80;;;;;;;0.10;100.00;99236.89;107161;1276;25304;-66
2023/02/24 07:28:41;;;;;;;15.30;9.90;;;;;;;0.09;100.00;99236.39;108087;1276;22538;-66
2023/02/24 07:31:15;;;;;;;15.40;10.50;;;;;;;0.09;100.00;99226.39;107445;1276;26522;-66
2023/02/24 07:33:45;;;;;;;18.40;10.80;;;;;;;0.18;100.00;99230.89;108388;1276;22575;-65
2023/02/24 07:36:17;;;;;;;16.20;10.60;;;;;;;0.24;100.00;99225.13;107568;1273;25418;-66
2023/02/24 07:38:45;;;;;;;17.70;10.50;;;;;;;0.22;100.00;99222.55;107593;1275;23545;-67
2023/02/24 07:41:17;;;;;;;20.00;12.10;;;;;;;0.22;100.00;99219.99;110374;1275;22994;-67
2023/02/24 07:43:49;;;;;;;17.20;11.10;;;;;;;0.30;100.00;99215.44;110374;1275;22172;-67
2023/02/24 07:46:27;;;;;;;20.30;10.60;;;;;;;0.37;100.00;99212.59;110402;1276;22217;-67
2023/02/24 07:48:58;;;;;;;17.20;10.10;;;;;;;0.36;100.00;99212.41;110399;1276;22233;-67
2023/02/24 07:51:28;;;;;;;16.90;10.80;;;;;;;0.39;100.00;99211.30;110391;1276;22206;-68
2023/02/24 07:54:02;;;;;;;20.00;12.50;;;;;;;0.48;100.00;99206.10;110441;1276;22294;-68
2023/02/24 07:56:44;;;;;;;19.40;11.10;;;;;;;0.48;100.00;99203.55;110293;1276;22245;-67
2023/02/24 07:59:18;;;;;;;18.90;10.70;;;;;;;0.54;100.00;99202.42;110403;1276;22774;-67
2023/02/24 08:01:49;;;;;;;17.40;11.00;;;;;;;0.64;100.00;99194.88;110448;1275;23066;-67
2023/02/24 08:04:18;;;;;;;18.50;10.70;;;;;;;0.66;100.00;99191.19;110411;1276;22205;-67
2023/02/24 08:06:49;;;;;;;20.60;10.90;;;;;;;0.66;100.00;99185.13;110436;1275;22431;-67
2023/02/24 08:09:19;;;;;;;18.40;10.70;;;;;;;0.72;100.00;99192.86;110410;1275;22323;-67
2023/02/24 08:11:54;;;;;;;18.20;10.80;;;;;;;0.77;100.00;99191.29;110418;1276;22166;-67
2023/02/24 08:14:31;;;;;;;18.90;10.50;;;;;;;0.78;100.00;99192.23;110460;1275;22211;-67
2023/02/24 08:17:00;;;;;;;;;;;;;;;0.78;100.00;99184.73;110461;1275;22437;-67
2023/02/24 08:19:32;;;;;;;18.20;10.80;;;;;;;0.85;100.00;99179.08;110392;1276;23080;-67
2023/02/24 08:22:18;;;;;;;17.00;10.90;;;;;;;0.90;100.00;99175.20;110413;1276;22327;-67
2023/02/24 08:24:53;;;;;;;18.90;11.20;;;;;;;0.90;100.00;99176.55;110434;1276;23153;-67
2023/02/24 08:27:24;;;;;;;19.40;11.70;;;;;;;0.85;100.00;99169.21;110385;1276;23137;-67
2023/02/24 08:30:00;;;;;;;15.90;9.80;;;;;;;0.90;100.00;99161.50;110377;1275;22899;-67
2023/02/24 08:32:35;;;;;;;18.40;11.20;;;;;;;0.99;100.00;99160.61;110426;1275;22200;-67
2023/02/24 08:35:13;;;;;;;16.80;10.40;;;;;;;1.01;100.00;99157.95;110414;1275;22338;-67
2023/02/24 08:37:47;;;;;;;19.90;11.10;;;;;;;1.00;100.00;99153.31;110293;1276;22230;-67
2023/02/24 08:43:31;;;;;;;17.40;11.40;;;;;;;1.12;100.00;99145.78;107446;1275;22545;-67
2023/02/24 08:46:24;;;;;;;14.20;9.30;;;;;;;1.14;100.00;99146.57;107513;1276;25408;-67
2023/02/24 08:48:59;;;;;;;16.10;10.00;;;;;;;1.14;100.00;99138.98;107116;1276;25433;-66
2023/02/24 08:51:42;;;;;;;18.20;10.90;;;;;;;1.19;100.00;99140.16;107251;1275;24045;-67
2023/02/24 08:54:15;;;;;;;16.20;10.30;;;;;;;1.22;100.00;99140.63;107316;1276;22543;-66
2023/02/24 08:56:54;;;;;;;20.20;11.50;;;;;;;1.24;100.00;99141.39;107570;1276;27109;-66
2023/02/24 08:59:36;;;;;;;16.20;10.60;;;;;;;1.26;100.00;99136.56;107333;1276;25327;-66
2023/02/24 09:02:17;;;;;;;14.90;9.90;;;;;;;1.37;100.00;99136.88;107567;1275;23279;-66
2023/02/24 09:04:47;;;;;;;16.50;10.30;;;;;;;1.35;100.00;99134.41;107697;1275;22744;-66
2023/02/24 09:07:34;;;;;;;17.80;10.10;;;;;;;1.31;100.00;99131.29;107938;1275;22527;-66
2023/02/24 09:10:10;;;;;;;16.80;9.90;;;;;;;1.32;100.00;99125.30;108413;1273;22926;-66
2023/02/24 09:12:40;;;;;;;18.40;9.60;;;;;;;1.32;100.00;99122.53;107644;1275;23389;-67
2023/02/24 09:15:09;;;;;;;17.80;10.70;;;;;;;1.31;100.00;99119.33;107584;1276;23352;-68
2023/02/24 09:23:18;;;;;;;18.10;10.10;;;;;;;1.46;100.00;99105.42;107539;1276;24075;-67
2023/02/24 09:25:53;;;;;;;15.20;9.60;;;;;;;1.51;100.00;99095.58;110260;1276;22894;-66
2023/02/24 09:28:25;;;;;;;16.40;10.40;;;;;;;1.55;100.00;99095.02;110407;1276;22285;-66
2023/02/24 09:30:58;;;;;;;19.10;11.20;;;;;;;1.58;100.00;99087.85;110399;1274;22187;-67
2023/02/24 09:33:40;;;;;;;17.10;9.80;;;;;;;1.67;100.00;99080.64;110469;1274;22477;-66
2023/02/24 09:37:01;;;;;;;16.50;11.00;;;;;;;1.75;100.00;99085.06;110409;1275;22362;-67
2023/02/24 09:44:55;;;;;;;18.00;11.10;;;;;;;1.90;100.00;99081.20;107117;1280;24364;-67
2023/02/24 09:50:36;;;;;;;23.60;15.00;;;;;;;1.91;100.00;99069.63;107387;1273;25369;-66
2023/02/24 09:53:28;;;;;;;19.30;13.10;;;;;;;1.89;100.00;99062.08;107391;1276;25124;-67
2023/02/24 09:56:04;;;;;;;15.10;10.10;;;;;;;1.99;100.00;99057.52;107417;1274;23853;-67
2023/02/24 09:58:48;;;;;;;16.30;10.50;;;;;;;2.04;100.00;99046.17;107853;1274;22529;-65
2023/02/24 10:01:29;;;;;;;19.60;12.20;;;;;;;1.99;100.00;99041.30;107474;1275;22631;-66
2023/02/24 10:04:04;;;;;;;16.00;10.40;;;;;;;1.95;100.00;99037.73;107767;1263;25337;-66
2023/02/24 10:06:56;;;;;;;15.50;9.70;;;;;;;2.07;100.00;99031.71;107573;1276;25364;-66
2023/02/24 10:09:33;;;;;;;17.00;11.00;;;;;;;2.14;100.00;99029.26;107597;1273;25657;-66
2023/02/24 10:12:22;;;;;;;16.30;10.40;;;;;;;2.15;100.00;99030.13;107519;1275;22597;-66
2023/02/24 10:17:54;;;;;;;16.70;9.60;;;;;;;2.26;100.00;99025.19;106655;1273;26182;-67
2023/02/24 10:20:38;;;;;;;13.40;9.40;;;;;;;2.36;100.00;99018.67;106634;1273;25369;-68
2023/02/24 10:23:28;;;;;;;13.80;9.10;;;;;;;2.37;100.00;99017.25;110370;1276;22254;-66
2023/02/24 10:26:32;;;;;;;14.90;9.30;;;;;;;2.30;100.00;99012.42;110275;1275;22249;-66
2023/02/24 10:29:21;;;;;;;14.80;8.90;;;;;;;2.28;100.00;99007.64;110274;1276;22291;-66
2023/02/24 10:31:56;;;;;;;15.50;9.70;;;;;;;2.34;100.00;99001.23;110362;1276;23418;-67
2023/02/24 10:34:30;;;;;;;16.50;10.00;;;;;;;2.35;100.00;98994.36;110263;1276;23005;-67
2023/02/24 10:37:09;;;;;;;17.60;13.40;;;;;;;2.33;100.00;98987.23;110300;1276;22298;-67
2023/02/24 10:39:58;;;;;;;16.30;10.70;;;;;;;2.33;100.00;98989.66;110251;1276;22713;-66
2023/02/24 10:42:31;;;;;;;14.60;8.80;;;;;;;2.33;100.00;98985.68;110185;1276;22419;-66
2023/02/24 10:45:10;;;;;;;14.00;9.30;;;;;;;2.39;100.00;98982.33;110462;1274;22285;-67
2023/02/24 10:47:55;;;;;;;14.30;9.90;;;;;;;2.37;100.00;98973.95;110457;1274;22271;-67
2023/02/24 10:50:31;;;;;;;15.60;10.10;;;;;;;2.34;100.00;98968.34;110438;1276;22293;-66
2023/02/24 10:53:25;;;;;;;14.60;9.70;;;;;;;2.34;100.00;98966.65;110433;1276;22066;-66
2023/02/24 10:56:53;;;;;;;20.30;10.00;;;;;;;2.46;100.00;98964.24;110418;1270;22292;-66
2023/02/24 11:01:39;;;;;;;15.60;10.60;;;;;;;2.49;100.00;98954.23;110394;1276;23092;-66
2023/02/24 11:04:31;;;;;;;16.80;10.60;;;;;;;2.49;100.00;98945.99;110355;1276;22304;-66
2023/02/24 11:07:23;;;;;;;16.70;10.30;;;;;;;2.56;100.00;98941.65;110187;1278;22367;-67
2023/02/24 11:10:12;;;;;;;15.40;11.20;;;;;;;2.53;100.00;98941.92;110127;1275;22289;-66
2023/02/24 11:18:33;;;;;;;13.90;9.10;;;;;;;2.56;100.00;98928.21;109670;1276;22533;-66
2023/02/24 11:21:08;;;;;;;15.10;10.50;;;;;;;2.54;100.00;98933.39;107266;1277;25539;-66
2023/02/24 11:23:41;;;;;;;17.40;10.30;;;;;;;2.53;100.00;98925.64;107280;1272;25363;-66
2023/02/24 11:26:22;;;;;;;18.10;10.80;;;;;;;2.62;100.00;98921.14;107198;1278;26476;-66
2023/02/24 11:29:18;;;;;;;14.90;10.50;;;;;;;2.68;100.00;98926.05;107294;1277;26175;-66
2023/02/24 11:32:08;;;;;;;17.20;12.10;;;;;;;2.67;100.00;98925.80;106633;1277;24260;-66
2023/02/24 11:34:48;;;;;;;20.20;12.70;;;;;;;2.69;100.00;98925.69;107026;1276;25340;-66
2023/02/24 11:37:23;;;;;;;18.50;12.30;;;;;;;2.82;100.00;98918.46;106794;1272;24269;-65
2023/02/24 11:39:58;;;;;;;16.10;10.60;;;;;;;2.76;100.00;98913.55;106658;1276;25507;-66
2023/02/24 11:42:45;;;;;;;15.20;10.60;;;;;;;2.69;100.00;98911.70;107258;1276;25535;-65
2023/02/24 11:45:36;;;;;;;13.60;9.70;;;;;;;2.69;100.00;98907.89;107037;1277;25362;-65
2023/02/24 11:48:09;;;;;;;15.20;10.50;;;;;;;2.75;100.00;98903.27;106720;1270;26101;-65
2023/02/24 11:50:43;;;;;;;16.10;10.60;;;;;;;2.70;100.00;98899.05;106589;1276;22538;-65
2023/02/24 11:53:29;;;;;;;14.40;10.50;;;;;;;2.62;100.00;98896.85;106828;1273;22523;-64
2023/02/24 11:56:35;;;;;;;18.20;11.00;;;;;;;2.65;100.00;98895.29;106754;1276;22660;-66
2023/02/24 11:59:19;;;;;;;16.80;11.30;;;;;;;2.77;100.00;98890.41;110177;1276;22612;-66
2023/02/24 12:02:15;;;;;;;16.70;10.50;;;;;;;2.79;100.00;98888.67;110149;1276;22229;-67
2023/02/24 12:04:59;;;;;;;16.60;10.60;;;;;;;2.75;100.00;98888.07;109922;1273;23962;-66
2023/02/24 12:07:31;;;;;;;16.00;10.50;;;;;;;2.77;100.00;98881.27;110037;1273;22379;-66
2023/02/24 12:10:12;;;;;;;17.60;10.80;;;;;;;2.87;100.00;98869.09;110158;1275;22360;-65
2023/02/24 12:13:10;;;;;;;15.30;9.90;;;;;;;2.93;100.00;98867.67;110036;1276;22212;-65
2023/02/24 12:15:42;;;;;;;14.50;9.90;;;;;;;2.96;100.00;98867.41;106808;1254;22519;-65
2023/02/24 12:18:19;;;;;;;15.90;10.40;;;;;;;2.97;100.00;98872.70;106476;1276;25453;-65
2023/02/24 12:20:51;;;;;;;14.60;10.50;;;;;;;3.08;100.00;98869.02;106568;1270;25354;-65
2023/02/24 12:23:31;;;;;;;16.50;10.90;;;;;;;3.13;100.00;98868.92;106693;1276;23950;-65